Time;durP1;ratioP1;P1;durP2;ratioP2;P2;SDS_P1;SDS_P2;PMS_P1;PMS_P2;Temp;Humidity;BMP_temperature;BMP_pressure;BME280_temperature;BME280_humidity;BME280_pressure;Samples;Min_cycle;Max_cycle;Signal;HPM_P1;HPM_P2
2023/10/08 00:00:39;;;;;;;0.00;0.00;;;;;;;;;;1734367;28;20254;-66
2023/10/08 00:01:14;;;;;;;0.00;0.00;;;;;;;;;;1727993;28;20742;-66
2023/10/08 00:02:05;;;;;;;0.00;0.00;;;;;;;;;;1731559;28;20226;-66
2023/10/08 00:02:57;;;;;;;0.00;0.00;;;;;;;;;;1737000;28;20674;-66
2023/10/08 00:03:49;;;;;;;0.00;0.00;;;;;;;;;;1731653;28;20245;-66
2023/10/08 00:04:44;;;;;;;0.00;0.00;;;;;;;;;;1731042;28;20276;-66
2023/10/08 00:05:36;;;;;;;0.00;0.00;;;;;;;;;;1731770;28;20810;-66
2023/10/08 00:06:28;;;;;;;0.00;0.00;;;;;;;;;;1731695;28;20577;-65
2023/10/08 00:07:21;;;;;;;0.00;0.00;;;;;;;;;;1733191;28;20235;-66
2023/10/08 00:08:14;;;;;;;0.00;0.00;;;;;;;;;;1735438;28;20672;-66
2023/10/08 00:09:08;;;;;;;0.00;0.00;;;;;;;;;;1733704;28;20199;-65
2023/10/08 00:09:59;;;;;;;0.00;0.00;;;;;;;;;;1728350;28;20760;-66
2023/10/08 00:10:51;;;;;;;0.00;0.00;;;;;;;;;;1731236;28;20211;-64
2023/10/08 00:11:43;;;;;;;0.00;0.00;;;;;;;;;;1730841;28;20215;-65
2023/10/08 00:12:34;;;;;;;0.00;0.00;;;;;;;;;;1735327;28;20338;-66
2023/10/08 00:13:25;;;;;;;0.00;0.00;;;;;;;;;;1735172;28;20206;-66
2023/10/08 00:14:21;;;;;;;0.00;0.00;;;;;;;;;;1732161;28;20651;-66
2023/10/08 00:15:12;;;;;;;0.00;0.00;;;;;;;;;;1730922;28;20631;-66
2023/10/08 00:16:09;;;;;;;0.00;0.00;;;;;;;;;;1731889;28;20314;-65
2023/10/08 00:17:01;;;;;;;0.00;0.00;;;;;;;;;;1731280;28;20210;-65
2023/10/08 00:17:54;;;;;;;0.00;0.00;;;;;;;;;;1736812;28;20307;-66
2023/10/08 00:18:48;;;;;;;0.00;0.00;;;;;;;;;;1730904;28;20203;-65
2023/10/08 00:19:42;;;;;;;0.00;0.00;;;;;;;;;;1728304;28;20239;-66
2023/10/08 00:20:56;;;;;;;0.00;0.00;;;;;;;;;;1731878;28;20294;-66
2023/10/08 00:21:48;;;;;;;0.00;0.00;;;;;;;;;;1729289;28;20207;-66
2023/10/08 00:22:41;;;;;;;0.00;0.00;;;;;;;;;;1736682;28;20235;-66
2023/10/08 00:23:35;;;;;;;0.00;0.00;;;;;;;;;;1732936;28;20206;-65
2023/10/08 00:24:29;;;;;;;0.00;0.00;;;;;;;;;;1732785;28;20292;-65
2023/10/08 00:25:20;;;;;;;0.00;0.00;;;;;;;;;;1732455;28;20212;-66
2023/10/08 00:26:12;;;;;;;0.00;0.00;;;;;;;;;;1732541;28;20636;-65
2023/10/08 00:27:06;;;;;;;0.00;0.00;;;;;;;;;;1732490;28;20211;-66
2023/10/08 00:27:57;;;;;;;0.00;0.00;;;;;;;;;;1729768;28;20675;-66
2023/10/08 00:28:51;;;;;;;0.00;0.00;;;;;;;;;;1732573;28;20207;-66
2023/10/08 00:29:43;;;;;;;0.00;0.00;;;;;;;;;;1732426;28;20577;-65
2023/10/08 00:30:35;;;;;;;0.00;0.00;;;;;;;;;;1732031;28;20265;-66
2023/10/08 00:31:30;;;;;;;0.00;0.00;;;;;;;;;;1732624;28;20211;-66
2023/10/08 00:32:23;;;;;;;0.00;0.00;;;;;;;;;;1732387;28;20225;-65
2023/10/08 00:33:14;;;;;;;0.00;0.00;;;;;;;;;;1733182;28;20266;-66
2023/10/08 00:34:05;;;;;;;0.00;0.00;;;;;;;;;;1734972;28;20215;-65
2023/10/08 00:34:58;;;;;;;0.00;0.00;;;;;;;;;;1731901;28;20247;-65
2023/10/08 00:35:50;;;;;;;0.00;0.00;;;;;;;;;;1732915;28;20227;-65
2023/10/08 00:36:41;;;;;;;0.00;0.00;;;;;;;;;;1732346;28;20258;-65
2023/10/08 00:37:34;;;;;;;0.00;0.00;;;;;;;;;;1736145;28;20581;-65
2023/10/08 00:38:31;;;;;;;0.00;0.00;;;;;;;;;;1733840;28;20594;-65
2023/10/08 00:39:23;;;;;;;0.00;0.00;;;;;;;;;;1730171;28;20196;-65
2023/10/08 00:40:21;;;;;;;0.00;0.00;;;;;;;;;;1732231;28;20207;-65
2023/10/08 00:41:14;;;;;;;0.00;0.00;;;;;;;;;;1732600;28;20296;-64
2023/10/08 00:42:07;;;;;;;0.00;0.00;;;;;;;;;;1732507;28;20334;-64
2023/10/08 00:42:58;;;;;;;0.00;0.00;;;;;;;;;;1726877;28;20208;-65
2023/10/08 00:43:51;;;;;;;0.00;0.00;;;;;;;;;;1732631;28;20694;-65
2023/10/08 00:44:51;;;;;;;0.00;0.00;;;;;;;;;;1735251;28;20211;-65
2023/10/08 00:45:43;;;;;;;0.00;0.00;;;;;;;;;;1730451;28;20215;-65
2023/10/08 00:46:39;;;;;;;0.00;0.00;;;;;;;;;;1732317;28;21574;-65
2023/10/08 00:47:37;;;;;;;0.00;0.00;;;;;;;;;;1732727;28;20208;-65
2023/10/08 00:48:29;;;;;;;0.00;0.00;;;;;;;;;;1732133;28;20223;-65
2023/10/08 00:49:26;;;;;;;0.00;0.00;;;;;;;;;;1734108;28;20223;-65
2023/10/08 00:50:21;;;;;;;0.00;0.00;;;;;;;;;;1733198;28;20827;-64
2023/10/08 00:51:25;;;;;;;0.00;0.00;;;;;;;;;;1732617;28;20588;-64
2023/10/08 00:52:29;;;;;;;0.00;0.00;;;;;;;;;;1729653;28;20262;-64
2023/10/08 00:53:21;;;;;;;0.00;0.00;;;;;;;;;;1732120;28;20586;-64
2023/10/08 00:54:17;;;;;;;0.00;0.00;;;;;;;;;;1732916;28;20209;-64
2023/10/08 00:55:14;;;;;;;0.00;0.00;;;;;;;;;;1732217;28;20239;-64
2023/10/08 00:56:12;;;;;;;0.00;0.00;;;;;;;;;;1732965;28;20192;-65
2023/10/08 00:57:04;;;;;;;0.00;0.00;;;;;;;;;;1732476;28;20286;-64
2023/10/08 00:58:08;;;;;;;0.00;0.00;;;;;;;;;;1732153;28;20226;-64
2023/10/08 00:58:59;;;;;;;0.00;0.00;;;;;;;;;;1729715;28;20719;-64
2023/10/08 00:59:53;;;;;;;0.00;0.00;;;;;;;;;;1732019;28;20208;-65
2023/10/08 01:00:47;;;;;;;0.00;0.00;;;;;;;;;;1732615;28;20207;-64
2023/10/08 01:01:38;;;;;;;0.00;0.00;;;;;;;;;;1729136;28;20215;-64
2023/10/08 01:02:42;;;;;;;0.00;0.00;;;;;;;;;;1735342;28;20264;-65
2023/10/08 01:03:35;;;;;;;0.00;0.00;;;;;;;;;;1735438;28;20214;-64
2023/10/08 01:04:27;;;;;;;0.00;0.00;;;;;;;;;;1734972;28;20713;-64
2023/10/08 01:05:20;;;;;;;0.00;0.00;;;;;;;;;;1732388;28;20203;-64
2023/10/08 01:06:12;;;;;;;0.00;0.00;;;;;;;;;;1732604;28;20207;-64
2023/10/08 01:07:13;;;;;;;0.00;0.00;;;;;;;;;;1732454;28;20495;-64
2023/10/08 01:08:06;;;;;;;0.00;0.00;;;;;;;;;;1727489;28;20204;-64
2023/10/08 01:09:13;;;;;;;0.00;0.00;;;;;;;;;;1732422;28;20227;-64
2023/10/08 01:10:10;;;;;;;0.00;0.00;;;;;;;;;;1731814;28;20222;-64
2023/10/08 01:12:24;;;;;;;0.00;0.00;;;;;;;;;;1765237;27;20569;-65
2023/10/08 01:13:15;;;;;;;0.00;0.00;;;;;;;;;;1761195;27;20212;-66
2023/10/08 01:14:07;;;;;;;0.00;0.00;;;;;;;;;;1758542;28;20196;-65
2023/10/08 01:15:07;;;;;;;0.00;0.00;;;;;;;;;;1757815;28;20699;-66
2023/10/08 01:15:58;;;;;;;0.00;0.00;;;;;;;;;;1758141;28;20209;-65
2023/10/08 01:16:51;;;;;;;0.00;0.00;;;;;;;;;;1758077;28;20660;-65
2023/10/08 01:17:54;;;;;;;0.00;0.00;;;;;;;;;;1758652;28;20215;-65
2023/10/08 01:18:50;;;;;;;0.00;0.00;;;;;;;;;;1758152;28;20634;-65
2023/10/08 01:19:45;;;;;;;0.00;0.00;;;;;;;;;;1761181;28;20215;-65
2023/10/08 01:20:37;;;;;;;0.00;0.00;;;;;;;;;;1758017;28;20201;-65
2023/10/08 01:21:36;;;;;;;0.00;0.00;;;;;;;;;;1757761;28;20215;-65
2023/10/08 01:22:29;;;;;;;0.00;0.00;;;;;;;;;;1758047;28;20660;-65
2023/10/08 01:23:21;;;;;;;0.00;0.00;;;;;;;;;;1757621;28;20220;-65
2023/10/08 01:24:17;;;;;;;0.00;0.00;;;;;;;;;;1758157;28;20201;-64
2023/10/08 01:25:10;;;;;;;0.00;0.00;;;;;;;;;;1758246;28;20261;-65
2023/10/08 01:26:10;;;;;;;0.00;0.00;;;;;;;;;;1753516;28;20573;-65
2023/10/08 01:27:04;;;;;;;0.00;0.00;;;;;;;;;;1758340;28;20627;-65
2023/10/08 01:27:56;;;;;;;0.00;0.00;;;;;;;;;;1758062;28;20252;-65
2023/10/08 01:28:48;;;;;;;0.00;0.00;;;;;;;;;;1757851;28;20721;-65
2023/10/08 01:29:39;;;;;;;0.00;0.00;;;;;;;;;;1754959;28;20682;-65
2023/10/08 01:30:41;;;;;;;0.00;0.00;;;;;;;;;;1758094;28;20472;-65
2023/10/08 01:31:33;;;;;;;0.00;0.00;;;;;;;;;;1757800;28;20205;-65
2023/10/08 01:32:24;;;;;;;0.00;0.00;;;;;;;;;;1757977;28;20679;-65
2023/10/08 01:33:20;;;;;;;0.00;0.00;;;;;;;;;;1757624;28;20699;-65
2023/10/08 01:34:16;;;;;;;0.00;0.00;;;;;;;;;;1758177;28;20660;-64
2023/10/08 01:35:22;;;;;;;0.00;0.00;;;;;;;;;;1758092;28;20563;-65
2023/10/08 01:36:14;;;;;;;0.00;0.00;;;;;;;;;;1754821;28;20201;-64
2023/10/08 01:37:08;;;;;;;0.00;0.00;;;;;;;;;;1758148;28;20208;-65
2023/10/08 01:38:03;;;;;;;0.00;0.00;;;;;;;;;;1757889;28;20211;-65
2023/10/08 01:38:54;;;;;;;0.00;0.00;;;;;;;;;;1756368;28;20330;-65
2023/10/08 01:39:49;;;;;;;0.00;0.00;;;;;;;;;;1756275;28;20209;-65
2023/10/08 01:40:41;;;;;;;0.00;0.00;;;;;;;;;;1757245;28;20205;-65
2023/10/08 01:41:33;;;;;;;0.00;0.00;;;;;;;;;;1757781;27;20254;-65
2023/10/08 01:42:28;;;;;;;0.00;0.00;;;;;;;;;;1765183;27;20776;-65
2023/10/08 01:43:20;;;;;;;0.00;0.00;;;;;;;;;;1768001;27;20654;-65
2023/10/08 01:44:11;;;;;;;0.00;0.00;;;;;;;;;;1765300;27;20233;-63
2023/10/08 01:45:06;;;;;;;0.00;0.00;;;;;;;;;;1768061;27;20615;-65
2023/10/08 01:45:58;;;;;;;0.00;0.00;;;;;;;;;;1765257;28;20208;-65
2023/10/08 01:46:49;;;;;;;0.00;0.00;;;;;;;;;;1764898;27;20250;-65
2023/10/08 01:47:41;;;;;;;0.00;0.00;;;;;;;;;;1765139;28;20196;-65
2023/10/08 01:48:38;;;;;;;0.00;0.00;;;;;;;;;;1765501;27;20232;-66
2023/10/08 01:49:33;;;;;;;0.00;0.00;;;;;;;;;;1764993;28;20192;-65
2023/10/08 01:50:25;;;;;;;0.00;0.00;;;;;;;;;;1764866;27;20548;-65
2023/10/08 01:51:24;;;;;;;0.00;0.00;;;;;;;;;;1764345;27;20285;-65
2023/10/08 01:52:20;;;;;;;0.00;0.00;;;;;;;;;;1762292;27;20232;-64
2023/10/08 01:53:15;;;;;;;0.00;0.00;;;;;;;;;;1767946;27;20716;-65
2023/10/08 01:54:10;;;;;;;0.00;0.00;;;;;;;;;;1763284;28;20253;-66
2023/10/08 01:55:03;;;;;;;0.00;0.00;;;;;;;;;;1762010;27;20326;-65
2023/10/08 01:55:55;;;;;;;0.00;0.00;;;;;;;;;;1769851;27;20208;-65
2023/10/08 01:56:46;;;;;;;0.00;0.00;;;;;;;;;;1764389;27;20835;-65
2023/10/08 01:57:39;;;;;;;0.00;0.00;;;;;;;;;;1768267;27;20288;-65
2023/10/08 01:58:34;;;;;;;0.00;0.00;;;;;;;;;;1767670;27;20208;-65
2023/10/08 01:59:26;;;;;;;0.00;0.00;;;;;;;;;;1764899;28;20201;-65
2023/10/08 02:00:19;;;;;;;0.00;0.00;;;;;;;;;;1766042;27;20617;-65
2023/10/08 02:01:12;;;;;;;0.00;0.00;;;;;;;;;;1769353;27;20638;-66
2023/10/08 02:02:05;;;;;;;0.00;0.00;;;;;;;;;;1764873;27;20223;-65
2023/10/08 02:02:59;;;;;;;0.00;0.00;;;;;;;;;;1769664;27;20219;-65
2023/10/08 02:03:50;;;;;;;0.00;0.00;;;;;;;;;;1768216;27;20204;-65
2023/10/08 02:04:43;;;;;;;0.00;0.00;;;;;;;;;;1767925;27;20200;-65
2023/10/08 02:05:37;;;;;;;0.00;0.00;;;;;;;;;;1765869;27;20204;-65
2023/10/08 02:06:30;;;;;;;0.00;0.00;;;;;;;;;;1764671;27;20235;-65
2023/10/08 02:07:22;;;;;;;0.00;0.00;;;;;;;;;;1766269;27;20844;-65
2023/10/08 02:08:16;;;;;;;0.00;0.00;;;;;;;;;;1767785;27;20295;-65
2023/10/08 02:09:07;;;;;;;0.00;0.00;;;;;;;;;;1767607;27;20659;-66
2023/10/08 02:09:59;;;;;;;0.00;0.00;;;;;;;;;;1764209;27;20218;-65
2023/10/08 02:10:50;;;;;;;0.00;0.00;;;;;;;;;;1764684;28;20236;-66
2023/10/08 02:11:45;;;;;;;0.00;0.00;;;;;;;;;;1761279;27;20294;-65
2023/10/08 02:12:37;;;;;;;0.00;0.00;;;;;;;;;;1759703;28;20198;-65
2023/10/08 02:13:29;;;;;;;0.00;0.00;;;;;;;;;;1766662;27;20587;-66
2023/10/08 02:14:20;;;;;;;0.00;0.00;;;;;;;;;;1766036;27;20204;-65
2023/10/08 02:15:12;;;;;;;0.00;0.00;;;;;;;;;;1766459;27;20204;-65
2023/10/08 02:16:03;;;;;;;0.00;0.00;;;;;;;;;;1760517;28;20658;-65
2023/10/08 02:16:56;;;;;;;0.00;0.00;;;;;;;;;;1764721;27;20735;-66
2023/10/08 02:17:49;;;;;;;0.00;0.00;;;;;;;;;;1765147;27;20227;-65
2023/10/08 02:18:40;;;;;;;0.00;0.00;;;;;;;;;;1766558;27;20200;-65
2023/10/08 02:19:32;;;;;;;0.00;0.00;;;;;;;;;;1767429;27;20204;-65
2023/10/08 02:20:23;;;;;;;0.00;0.00;;;;;;;;;;1765651;27;20682;-65
2023/10/08 02:21:14;;;;;;;0.00;0.00;;;;;;;;;;1768134;27;20211;-64
2023/10/08 02:22:09;;;;;;;0.00;0.00;;;;;;;;;;1765130;27;20212;-65
2023/10/08 02:23:00;;;;;;;0.00;0.00;;;;;;;;;;1768942;27;20257;-64
2023/10/08 02:23:52;;;;;;;0.00;0.00;;;;;;;;;;1762899;27;20285;-65
2023/10/08 02:24:44;;;;;;;0.00;0.00;;;;;;;;;;1762874;27;20331;-65
2023/10/08 02:25:36;;;;;;;0.00;0.00;;;;;;;;;;1762852;27;20241;-65
2023/10/08 02:26:27;;;;;;;0.00;0.00;;;;;;;;;;1760959;27;20674;-65
2023/10/08 02:27:19;;;;;;;0.00;0.00;;;;;;;;;;1760444;28;20205;-65
2023/10/08 02:28:12;;;;;;;0.00;0.00;;;;;;;;;;1760627;27;20225;-66
2023/10/08 02:29:10;;;;;;;0.00;0.00;;;;;;;;;;1762535;27;20342;-66
2023/10/08 02:30:03;;;;;;;0.00;0.00;;;;;;;;;;1762232;27;20232;-65
2023/10/08 02:30:55;;;;;;;0.00;0.00;;;;;;;;;;1764833;27;20239;-65
2023/10/08 02:31:47;;;;;;;0.00;0.00;;;;;;;;;;1759840;28;20216;-66
2023/10/08 02:32:42;;;;;;;0.00;0.00;;;;;;;;;;1763429;27;20224;-66
2023/10/08 02:33:34;;;;;;;0.00;0.00;;;;;;;;;;1762516;27;20208;-65
2023/10/08 02:34:26;;;;;;;0.00;0.00;;;;;;;;;;1761866;27;20236;-65
2023/10/08 02:35:18;;;;;;;0.00;0.00;;;;;;;;;;1760665;27;20292;-65
2023/10/08 02:36:10;;;;;;;0.00;0.00;;;;;;;;;;1764598;27;20208;-66
2023/10/08 02:37:03;;;;;;;0.00;0.00;;;;;;;;;;1759681;28;20283;-65
2023/10/08 02:37:54;;;;;;;0.00;0.00;;;;;;;;;;1764771;27;20215;-66
2023/10/08 02:38:46;;;;;;;0.00;0.00;;;;;;;;;;1758188;28;20205;-66
2023/10/08 02:39:40;;;;;;;0.00;0.00;;;;;;;;;;1758342;27;20227;-66
2023/10/08 02:40:32;;;;;;;0.00;0.00;;;;;;;;;;1762125;27;20235;-65
2023/10/08 02:41:24;;;;;;;0.00;0.00;;;;;;;;;;1760876;27;20208;-65
2023/10/08 02:42:16;;;;;;;0.00;0.00;;;;;;;;;;1756921;28;20731;-64
2023/10/08 02:43:08;;;;;;;0.00;0.00;;;;;;;;;;1764178;27;20204;-65
2023/10/08 02:43:59;;;;;;;0.00;0.00;;;;;;;;;;1762403;27;20213;-65
2023/10/08 02:44:51;;;;;;;0.00;0.00;;;;;;;;;;1761838;27;20257;-65
2023/10/08 02:45:47;;;;;;;0.00;0.00;;;;;;;;;;1763752;27;20682;-65
2023/10/08 02:46:40;;;;;;;0.00;0.00;;;;;;;;;;1759687;28;20205;-65
2023/10/08 02:47:33;;;;;;;0.00;0.00;;;;;;;;;;1762170;27;20736;-65
2023/10/08 02:48:25;;;;;;;0.00;0.00;;;;;;;;;;1762731;27;20338;-65
2023/10/08 02:49:20;;;;;;;0.00;0.00;;;;;;;;;;1760787;27;20588;-63
2023/10/08 02:50:11;;;;;;;0.00;0.00;;;;;;;;;;1761199;27;20212;-65
2023/10/08 02:51:11;;;;;;;0.00;0.00;;;;;;;;;;1764801;27;20212;-65
2023/10/08 02:52:04;;;;;;;0.00;0.00;;;;;;;;;;1759275;28;20240;-65
2023/10/08 02:53:02;;;;;;;0.00;0.00;;;;;;;;;;1762670;27;20610;-65
2023/10/08 02:53:53;;;;;;;0.00;0.00;;;;;;;;;;1759533;28;20228;-65
2023/10/08 02:54:46;;;;;;;0.00;0.00;;;;;;;;;;1762106;27;20254;-65
2023/10/08 02:55:42;;;;;;;0.00;0.00;;;;;;;;;;1762574;27;20299;-65
2023/10/08 02:56:36;;;;;;;0.00;0.00;;;;;;;;;;1759896;28;20201;-65
2023/10/08 02:57:30;;;;;;;0.00;0.00;;;;;;;;;;1761607;27;20205;-65
2023/10/08 02:58:21;;;;;;;0.00;0.00;;;;;;;;;;1762628;27;20209;-64
2023/10/08 02:59:12;;;;;;;0.00;0.00;;;;;;;;;;1761774;27;20205;-65
2023/10/08 03:00:11;;;;;;;0.00;0.00;;;;;;;;;;1761675;27;20209;-65
2023/10/08 03:01:03;;;;;;;0.00;0.00;;;;;;;;;;1764737;27;20571;-64
2023/10/08 03:01:55;;;;;;;0.00;0.00;;;;;;;;;;1760061;27;20335;-65
2023/10/08 03:02:47;;;;;;;0.00;0.00;;;;;;;;;;1763842;27;20299;-64
2023/10/08 03:03:39;;;;;;;0.00;0.00;;;;;;;;;;1762961;27;20208;-65
2023/10/08 03:04:30;;;;;;;0.00;0.00;;;;;;;;;;1761722;27;20659;-65
2023/10/08 03:05:23;;;;;;;0.00;0.00;;;;;;;;;;1760864;27;20235;-66
2023/10/08 03:06:14;;;;;;;0.00;0.00;;;;;;;;;;1759956;28;20232;-65
2023/10/08 03:07:11;;;;;;;0.00;0.00;;;;;;;;;;1759363;28;20212;-65
2023/10/08 03:08:10;;;;;;;0.00;0.00;;;;;;;;;;1764830;27;20216;-65
2023/10/08 03:09:04;;;;;;;0.00;0.00;;;;;;;;;;1761499;27;20250;-66
2023/10/08 03:10:03;;;;;;;0.00;0.00;;;;;;;;;;1763090;27;20659;-65
2023/10/08 03:10:56;;;;;;;0.00;0.00;;;;;;;;;;1762846;27;20205;-66
2023/10/08 03:11:48;;;;;;;0.00;0.00;;;;;;;;;;1756900;27;20740;-65
2023/10/08 03:12:40;;;;;;;0.00;0.00;;;;;;;;;;1757634;27;20312;-65
2023/10/08 03:13:32;;;;;;;0.00;0.00;;;;;;;;;;1762395;27;20208;-66
2023/10/08 03:14:23;;;;;;;0.00;0.00;;;;;;;;;;1760546;27;20239;-66
2023/10/08 03:15:27;;;;;;;0.00;0.00;;;;;;;;;;1760691;27;20287;-66
2023/10/08 03:16:27;;;;;;;0.00;0.00;;;;;;;;;;1757039;28;20194;-65
2023/10/08 03:17:20;;;;;;;0.00;0.00;;;;;;;;;;1757228;27;20232;-66
2023/10/08 03:18:14;;;;;;;0.00;0.00;;;;;;;;;;1763715;27;20232;-65
2023/10/08 03:19:06;;;;;;;0.00;0.00;;;;;;;;;;1761674;27;20243;-66
2023/10/08 03:20:27;;;;;;;0.00;0.00;;;;;;;;;;1761377;27;20220;-65
2023/10/08 03:21:20;;;;;;;0.00;0.00;;;;;;;;;;1755670;28;20416;-65
2023/10/08 03:22:12;;;;;;;0.00;0.00;;;;;;;;;;1759556;28;20229;-66
2023/10/08 03:23:07;;;;;;;0.00;0.00;;;;;;;;;;1763496;27;20204;-66
2023/10/08 03:23:59;;;;;;;0.00;0.00;;;;;;;;;;1760713;27;20212;-66
2023/10/08 03:24:50;;;;;;;0.00;0.00;;;;;;;;;;1761573;27;20208;-66
2023/10/08 03:25:42;;;;;;;0.00;0.00;;;;;;;;;;1763239;27;20196;-66
2023/10/08 03:26:35;;;;;;;0.00;0.00;;;;;;;;;;1760833;27;21456;-66
2023/10/08 03:27:26;;;;;;;0.00;0.00;;;;;;;;;;1759800;28;20603;-66
2023/10/08 03:28:17;;;;;;;0.00;0.00;;;;;;;;;;1762305;27;20204;-63
2023/10/08 03:29:15;;;;;;;0.00;0.00;;;;;;;;;;1761691;27;20204;-65
2023/10/08 03:30:08;;;;;;;0.00;0.00;;;;;;;;;;1760972;27;20213;-66
2023/10/08 03:31:03;;;;;;;0.00;0.00;;;;;;;;;;1764086;27;20659;-66
2023/10/08 03:31:54;;;;;;;0.00;0.00;;;;;;;;;;1759356;27;20789;-65
2023/10/08 03:32:50;;;;;;;0.00;0.00;;;;;;;;;;1759892;28;20714;-66
2023/10/08 03:33:48;;;;;;;0.00;0.00;;;;;;;;;;1761294;27;20323;-66
2023/10/08 03:34:43;;;;;;;0.00;0.00;;;;;;;;;;1757452;27;20228;-65
2023/10/08 03:35:36;;;;;;;0.00;0.00;;;;;;;;;;1761215;27;20452;-66
2023/10/08 03:36:34;;;;;;;0.00;0.00;;;;;;;;;;1761560;27;20215;-65
2023/10/08 03:37:29;;;;;;;0.00;0.00;;;;;;;;;;1759567;28;20239;-65
2023/10/08 03:38:28;;;;;;;0.00;0.00;;;;;;;;;;1759491;27;20262;-64
2023/10/08 03:39:20;;;;;;;0.00;0.00;;;;;;;;;;1756108;27;20221;-65
2023/10/08 03:40:25;;;;;;;0.00;0.00;;;;;;;;;;1754107;28;20206;-66
2023/10/08 03:41:20;;;;;;;0.00;0.00;;;;;;;;;;1749891;28;20198;-65
2023/10/08 03:42:19;;;;;;;0.00;0.00;;;;;;;;;;1759119;28;20256;-66
2023/10/08 03:43:15;;;;;;;0.00;0.00;;;;;;;;;;1755672;28;20224;-66
2023/10/08 03:44:13;;;;;;;0.00;0.00;;;;;;;;;;1758482;28;20201;-65
2023/10/08 03:45:10;;;;;;;0.00;0.00;;;;;;;;;;1761475;27;20668;-66
2023/10/08 03:46:05;;;;;;;0.00;0.00;;;;;;;;;;1764038;27;20620;-66
2023/10/08 03:46:57;;;;;;;0.00;0.00;;;;;;;;;;1759673;27;20209;-65
2023/10/08 03:48:03;;;;;;;0.00;0.00;;;;;;;;;;1760236;28;20258;-66
2023/10/08 03:48:57;;;;;;;0.00;0.00;;;;;;;;;;1761501;27;20205;-65
2023/10/08 03:49:50;;;;;;;0.00;0.00;;;;;;;;;;1761513;27;20239;-66
2023/10/08 03:50:43;;;;;;;0.00;0.00;;;;;;;;;;1760318;27;20205;-66
2023/10/08 03:51:39;;;;;;;0.00;0.00;;;;;;;;;;1760793;27;20209;-65
2023/10/08 03:52:31;;;;;;;0.00;0.00;;;;;;;;;;1761344;27;20228;-66
2023/10/08 03:53:22;;;;;;;0.00;0.00;;;;;;;;;;1760555;27;20639;-65
2023/10/08 03:54:17;;;;;;;0.00;0.00;;;;;;;;;;1754504;28;20667;-65
2023/10/08 03:55:21;;;;;;;0.00;0.00;;;;;;;;;;1754309;28;20205;-66
2023/10/08 03:56:14;;;;;;;0.00;0.00;;;;;;;;;;1756628;28;20205;-63
2023/10/08 03:57:17;;;;;;;0.00;0.00;;;;;;;;;;1759828;28;20213;-65
2023/10/08 03:58:19;;;;;;;0.00;0.00;;;;;;;;;;1763681;27;20770;-65
2023/10/08 03:59:14;;;;;;;0.00;0.00;;;;;;;;;;1762137;27;20208;-66
2023/10/08 04:00:10;;;;;;;0.00;0.00;;;;;;;;;;1761560;27;20209;-66
2023/10/08 04:01:08;;;;;;;0.00;0.00;;;;;;;;;;1764028;27;20426;-65
2023/10/08 04:02:10;;;;;;;0.00;0.00;;;;;;;;;;1760523;28;20225;-65
2023/10/08 04:03:07;;;;;;;0.00;0.00;;;;;;;;;;1763385;27;20247;-65
2023/10/08 04:04:00;;;;;;;0.00;0.00;;;;;;;;;;1760390;27;20600;-65
2023/10/08 04:04:53;;;;;;;0.00;0.00;;;;;;;;;;1761309;27;20311;-66
2023/10/08 04:05:54;;;;;;;0.00;0.00;;;;;;;;;;1763244;27;20211;-66
2023/10/08 04:06:51;;;;;;;0.00;0.00;;;;;;;;;;1758195;27;20220;-66
2023/10/08 04:08:05;;;;;;;0.00;0.00;;;;;;;;;;1763259;27;20269;-66
2023/10/08 04:09:10;;;;;;;0.00;0.00;;;;;;;;;;1761355;27;20205;-66
2023/10/08 04:10:34;;;;;;;0.00;0.00;;;;;;;;;;1762090;27;20212;-65
2023/10/08 04:11:32;;;;;;;0.00;0.00;;;;;;;;;;1757134;28;20200;-63
2023/10/08 04:12:26;;;;;;;0.00;0.00;;;;;;;;;;1751366;28;20221;-65
2023/10/08 04:13:19;;;;;;;0.00;0.00;;;;;;;;;;1756021;28;20206;-66
2023/10/08 04:14:11;;;;;;;0.00;0.00;;;;;;;;;;1751783;28;20233;-66
2023/10/08 04:15:07;;;;;;;0.00;0.00;;;;;;;;;;1753934;28;20725;-67
2023/10/08 04:15:58;;;;;;;0.00;0.00;;;;;;;;;;1756865;28;20221;-65
2023/10/08 04:16:51;;;;;;;0.00;0.00;;;;;;;;;;1753140;28;20235;-66
2023/10/08 04:17:44;;;;;;;0.00;0.00;;;;;;;;;;1755600;28;20205;-66
2023/10/08 04:18:40;;;;;;;0.00;0.00;;;;;;;;;;1754061;28;20206;-66
2023/10/08 04:19:33;;;;;;;0.00;0.00;;;;;;;;;;1752539;28;20202;-65
2023/10/08 04:20:33;;;;;;;0.00;0.00;;;;;;;;;;1752456;28;20532;-65
2023/10/08 04:21:27;;;;;;;0.00;0.00;;;;;;;;;;1754248;28;20209;-64
2023/10/08 04:22:19;;;;;;;0.00;0.00;;;;;;;;;;1752523;28;20228;-66
2023/10/08 04:23:13;;;;;;;0.00;0.00;;;;;;;;;;1748901;28;20229;-65
2023/10/08 04:24:05;;;;;;;0.00;0.00;;;;;;;;;;1750181;28;20212;-66
2023/10/08 04:24:59;;;;;;;0.00;0.00;;;;;;;;;;1752659;28;20213;-66
2023/10/08 04:25:54;;;;;;;0.00;0.00;;;;;;;;;;1756027;28;20581;-65
2023/10/08 04:26:45;;;;;;;0.00;0.00;;;;;;;;;;1750859;28;20211;-65
2023/10/08 04:27:38;;;;;;;0.00;0.00;;;;;;;;;;1753194;28;20205;-66
2023/10/08 04:28:34;;;;;;;0.00;0.00;;;;;;;;;;1752933;28;20241;-66
2023/10/08 04:29:26;;;;;;;0.00;0.00;;;;;;;;;;1751287;28;20225;-65
2023/10/08 04:30:20;;;;;;;0.00;0.00;;;;;;;;;;1752864;28;20339;-66
2023/10/08 04:31:15;;;;;;;0.00;0.00;;;;;;;;;;1756556;28;20220;-66
2023/10/08 04:32:17;;;;;;;0.00;0.00;;;;;;;;;;1751823;28;20286;-66
2023/10/08 04:33:12;;;;;;;0.00;0.00;;;;;;;;;;1755604;28;20278;-66
2023/10/08 04:34:09;;;;;;;0.00;0.00;;;;;;;;;;1753912;28;20558;-66
2023/10/08 04:35:07;;;;;;;0.00;0.00;;;;;;;;;;1753457;28;20228;-66
2023/10/08 04:36:01;;;;;;;0.00;0.00;;;;;;;;;;1756117;28;20217;-65
2023/10/08 04:36:54;;;;;;;0.00;0.00;;;;;;;;;;1752378;28;20210;-66
2023/10/08 04:37:51;;;;;;;0.00;0.00;;;;;;;;;;1755869;28;20208;-66
2023/10/08 04:38:45;;;;;;;0.00;0.00;;;;;;;;;;1752383;28;20681;-65
2023/10/08 04:39:39;;;;;;;0.00;0.00;;;;;;;;;;1753267;28;20243;-65
2023/10/08 04:40:48;;;;;;;0.00;0.00;;;;;;;;;;1752220;28;20687;-65
2023/10/08 04:41:42;;;;;;;0.00;0.00;;;;;;;;;;1749037;28;20613;-65
2023/10/08 04:42:33;;;;;;;0.00;0.00;;;;;;;;;;1753664;28;20727;-65
2023/10/08 04:43:27;;;;;;;0.00;0.00;;;;;;;;;;1754413;28;20198;-64
2023/10/08 04:44:18;;;;;;;0.00;0.00;;;;;;;;;;1753295;28;20266;-65
2023/10/08 04:45:13;;;;;;;0.00;0.00;;;;;;;;;;1752124;28;20712;-66
2023/10/08 04:46:16;;;;;;;0.00;0.00;;;;;;;;;;1756278;28;20669;-65
2023/10/08 04:47:27;;;;;;;0.00;0.00;;;;;;;;;;1752851;28;20222;-65
2023/10/08 04:48:20;;;;;;;0.00;0.00;;;;;;;;;;1749444;28;20663;-65
2023/10/08 04:49:25;;;;;;;0.00;0.00;;;;;;;;;;1753920;28;20206;-65
2023/10/08 04:50:20;;;;;;;0.00;0.00;;;;;;;;;;1751677;28;20247;-65
2023/10/08 04:51:12;;;;;;;0.00;0.00;;;;;;;;;;1755936;28;20209;-66
2023/10/08 04:52:09;;;;;;;0.00;0.00;;;;;;;;;;1752227;28;20613;-66
2023/10/08 04:53:00;;;;;;;0.00;0.00;;;;;;;;;;1753509;28;20221;-65
2023/10/08 04:53:51;;;;;;;0.00;0.00;;;;;;;;;;1753697;28;20205;-66
2023/10/08 04:54:51;;;;;;;0.00;0.00;;;;;;;;;;1753397;28;20251;-65
2023/10/08 04:55:48;;;;;;;0.00;0.00;;;;;;;;;;1751843;28;20284;-65
2023/10/08 04:56:39;;;;;;;0.00;0.00;;;;;;;;;;1749435;28;21204;-65
2023/10/08 04:57:34;;;;;;;0.00;0.00;;;;;;;;;;1753820;28;20205;-65
2023/10/08 04:58:33;;;;;;;0.00;0.00;;;;;;;;;;1754518;28;20205;-65
2023/10/08 04:59:32;;;;;;;0.00;0.00;;;;;;;;;;1752333;28;20728;-65
2023/10/08 05:00:41;;;;;;;0.00;0.00;;;;;;;;;;1751668;28;20221;-63
2023/10/08 05:01:47;;;;;;;0.00;0.00;;;;;;;;;;1752923;28;20565;-64
2023/10/08 05:02:49;;;;;;;0.00;0.00;;;;;;;;;;1754514;28;20289;-65
2023/10/08 05:03:54;;;;;;;0.00;0.00;;;;;;;;;;1753007;28;20196;-65
2023/10/08 05:04:56;;;;;;;0.00;0.00;;;;;;;;;;1750402;28;20712;-65
2023/10/08 05:06:07;;;;;;;0.00;0.00;;;;;;;;;;1754042;28;20584;-65
2023/10/08 05:07:17;;;;;;;0.00;0.00;;;;;;;;;;1751140;28;20215;-65
2023/10/08 05:09:23;;;;;;;0.00;0.00;;;;;;;;;;1751011;28;20612;-65
2023/10/08 05:11:45;;;;;;;0.00;0.00;;;;;;;;;;1749550;28;20744;-65
2023/10/08 05:12:42;;;;;;;0.00;0.00;;;;;;;;;;1760730;28;20197;-65
2023/10/08 05:13:45;;;;;;;0.00;0.00;;;;;;;;;;1762893;28;20655;-65
2023/10/08 05:14:55;;;;;;;0.00;0.00;;;;;;;;;;1760547;28;20201;-65
2023/10/08 05:16:02;;;;;;;0.00;0.00;;;;;;;;;;1759913;28;20202;-66
2023/10/08 05:17:00;;;;;;;0.00;0.00;;;;;;;;;;1753647;28;20940;-65
2023/10/08 05:18:08;;;;;;;0.00;0.00;;;;;;;;;;1759661;28;20208;-65
2023/10/08 05:20:40;;;;;;;0.00;0.00;;;;;;;;;;1744280;28;20209;-64
2023/10/08 05:21:50;;;;;;;0.00;0.00;;;;;;;;;;1740575;28;20252;-65
2023/10/08 05:22:44;;;;;;;0.00;0.00;;;;;;;;;;1736568;28;20199;-65
2023/10/08 05:24:08;;;;;;;0.00;0.00;;;;;;;;;;1761038;28;20203;-66
2023/10/08 05:25:08;;;;;;;0.00;0.00;;;;;;;;;;1758479;28;20263;-65
2023/10/08 05:26:08;;;;;;;0.00;0.00;;;;;;;;;;1762341;28;20664;-65
2023/10/08 05:27:37;;;;;;;0.00;0.00;;;;;;;;;;1753930;28;20217;-65
2023/10/08 05:28:24;;;;;;;0.00;0.00;;;;;;;;;;1748868;28;20205;-65
2023/10/08 05:29:49;;;;;;;0.00;0.00;;;;;;;;;;1751506;28;20281;-65
2023/10/08 05:30:52;;;;;;;0.00;0.00;;;;;;;;;;1753839;28;20209;-65
2023/10/08 05:31:47;;;;;;;0.00;0.00;;;;;;;;;;1753473;28;20262;-65
2023/10/08 05:32:51;;;;;;;0.00;0.00;;;;;;;;;;1755779;28;20720;-65
2023/10/08 05:33:59;;;;;;;0.00;0.00;;;;;;;;;;1762220;28;20488;-64
2023/10/08 05:35:30;;;;;;;0.00;0.00;;;;;;;;;;1756595;28;20201;-65
2023/10/08 05:36:10;;;;;;;0.00;0.00;;;;;;;;;;1762392;28;20208;-64
2023/10/08 05:37:31;;;;;;;0.00;0.00;;;;;;;;;;1753696;28;20209;-65
2023/10/08 05:38:37;;;;;;;0.00;0.00;;;;;;;;;;1756235;28;20219;-65